createdAt,value
2023-05-18T00:00:11.625Z,25.62
2023-05-18T00:01:11.610Z,25.57
2023-05-18T00:02:11.659Z,25.46
2023-05-18T00:03:11.647Z,25.46
2023-05-18T00:04:11.584Z,25.51
2023-05-18T00:05:11.555Z,25.51
2023-05-18T00:06:11.544Z,25.46
2023-05-18T00:07:11.529Z,25.46
2023-05-18T00:08:11.519Z,25.46
2023-05-18T00:09:11.506Z,25.51
2023-05-18T00:10:11.547Z,25.46
2023-05-18T00:11:11.501Z,25.62
2023-05-18T00:12:11.485Z,25.46
2023-05-18T00:13:11.448Z,25.51
2023-05-18T00:14:11.435Z,25.46
2023-05-18T00:15:11.471Z,25.62
2023-05-18T00:16:11.508Z,25.46
2023-05-18T00:17:11.406Z,25.51
2023-05-18T00:18:11.867Z,25.19
2023-05-18T00:19:11.390Z,25.67
2023-05-18T00:20:11.372Z,25.46
2023-05-18T00:21:11.359Z,25.35
2023-05-18T00:22:11.339Z,25.67
2023-05-18T00:23:11.315Z,25.41
2023-05-18T00:24:11.305Z,25.41
2023-05-18T00:25:11.293Z,25.46
2023-05-18T00:26:11.272Z,25.51
2023-05-18T00:27:11.265Z,25.46
2023-05-18T00:28:11.271Z,25.46
2023-05-18T00:29:11.235Z,25.62
2023-05-18T00:30:11.223Z,25.30
2023-05-18T00:31:11.235Z,25.35
2023-05-18T00:32:11.199Z,25.57
2023-05-18T00:33:11.251Z,25.35
2023-05-18T00:34:11.178Z,25.46
2023-05-18T00:35:11.160Z,25.51
2023-05-18T00:36:11.168Z,25.62
2023-05-18T00:37:11.139Z,25.41
2023-05-18T00:38:11.122Z,25.46
2023-05-18T00:39:11.109Z,25.19
2023-05-18T00:40:11.093Z,25.46
2023-05-18T00:41:11.076Z,25.46
2023-05-18T00:42:11.068Z,25.41
2023-05-18T00:43:11.307Z,25.46
2023-05-18T00:44:11.070Z,25.51
2023-05-18T00:45:11.031Z,25.41
2023-05-18T00:46:11.029Z,25.51
2023-05-18T00:47:11.005Z,25.57
2023-05-18T00:48:11.007Z,25.46
2023-05-18T00:49:10.970Z,25.46
2023-05-18T00:50:10.970Z,25.67
2023-05-18T00:51:10.948Z,25.51
2023-05-18T00:52:10.948Z,25.41
2023-05-18T00:53:10.936Z,25.57
2023-05-18T00:54:10.906Z,25.30
2023-05-18T00:55:10.892Z,25.46
2023-05-18T00:56:10.889Z,25.46
2023-05-18T00:57:11.249Z,25.30
2023-05-18T00:58:10.858Z,25.41
2023-05-18T00:59:10.841Z,25.24
2023-05-18T01:00:10.948Z,25.46
2023-05-18T01:01:10.902Z,25.46
2023-05-18T01:02:10.841Z,25.41
2023-05-18T01:03:10.969Z,25.35
2023-05-18T01:04:10.774Z,25.46
2023-05-18T01:05:10.764Z,25.41
2023-05-18T01:06:10.755Z,25.46
2023-05-18T01:07:10.737Z,25.41
2023-05-18T01:08:10.846Z,25.46
2023-05-18T01:09:10.801Z,25.46
2023-05-18T01:10:10.702Z,25.46
2023-05-18T01:11:10.711Z,25.51
2023-05-18T01:12:10.919Z,25.51
2023-05-18T01:13:10.653Z,25.46
2023-05-18T01:14:10.640Z,25.51
2023-05-18T01:15:10.628Z,25.41
2023-05-18T01:16:10.638Z,25.46
2023-05-18T01:17:10.702Z,25.51
2023-05-18T01:18:10.816Z,25.73
2023-05-18T01:19:10.600Z,25.46
2023-05-18T01:20:10.561Z,25.30
2023-05-18T01:21:10.540Z,25.46
2023-05-18T01:22:10.539Z,25.46
2023-05-18T01:23:10.550Z,25.35
2023-05-18T01:24:10.505Z,25.24
2023-05-18T01:25:10.509Z,25.46
2023-05-18T01:26:10.485Z,25.46
2023-05-18T01:27:10.461Z,25.46
2023-05-18T01:28:10.484Z,25.67
2023-05-18T01:29:10.435Z,25.57
2023-05-18T01:30:10.430Z,26.00
2023-05-18T01:31:10.450Z,25.57
2023-05-18T01:32:10.426Z,25.46
2023-05-18T01:33:10.486Z,25.46
2023-05-18T01:34:10.366Z,25.41
2023-05-18T01:35:10.355Z,25.51
2023-05-18T01:36:10.344Z,25.46
2023-05-18T01:37:10.328Z,25.51
2023-05-18T01:38:10.316Z,25.41
2023-05-18T01:39:10.300Z,25.46
2023-05-18T01:40:10.292Z,25.46
2023-05-18T01:41:10.275Z,25.46
2023-05-18T01:42:10.266Z,25.46
2023-05-18T01:43:10.254Z,25.62
2023-05-18T01:44:10.229Z,25.46
2023-05-18T01:45:10.216Z,25.24
2023-05-18T01:46:10.232Z,25.46
2023-05-18T01:47:10.184Z,25.51
2023-05-18T01:48:10.228Z,25.41
2023-05-18T01:49:10.164Z,25.46
2023-05-18T01:50:10.150Z,25.46
2023-05-18T01:51:10.139Z,25.62
2023-05-18T01:52:10.130Z,25.57
2023-05-18T01:53:10.110Z,25.46
2023-05-18T01:54:10.117Z,25.30
2023-05-18T01:55:10.105Z,25.67
2023-05-18T01:56:10.084Z,25.35
2023-05-18T01:57:10.114Z,25.41
2023-05-18T01:58:10.065Z,25.46
2023-05-18T01:59:10.051Z,25.51
2023-05-18T02:00:10.004Z,25.41
2023-05-18T02:01:09.999Z,25.62
2023-05-18T02:02:10.057Z,25.41
2023-05-18T02:03:10.047Z,25.57
2023-05-18T02:04:10.499Z,25.83
2023-05-18T02:05:09.942Z,25.57
2023-05-18T02:06:09.929Z,25.41
2023-05-18T02:07:09.918Z,25.41
2023-05-18T02:08:09.904Z,25.51
2023-05-18T02:09:09.908Z,25.46
2023-05-18T02:10:09.871Z,25.35
2023-05-18T02:11:09.873Z,25.57
2023-05-18T02:12:09.850Z,25.57
2023-05-18T02:13:09.831Z,25.41
2023-05-18T02:14:09.838Z,25.51
2023-05-18T02:15:09.813Z,25.62
2023-05-18T02:16:09.814Z,25.51
2023-05-18T02:17:09.774Z,25.78
2023-05-18T02:18:09.778Z,25.46
2023-05-18T02:19:09.803Z,25.51
2023-05-18T02:20:09.766Z,25.46
2023-05-18T02:21:09.724Z,25.46
2023-05-18T02:22:09.729Z,25.41
2023-05-18T02:23:09.691Z,25.46
2023-05-18T02:24:09.674Z,25.35
2023-05-18T02:25:09.664Z,25.46
2023-05-18T02:26:09.655Z,25.46
2023-05-18T02:27:09.638Z,25.67
2023-05-18T02:28:09.623Z,25.35
2023-05-18T02:29:09.606Z,25.41
2023-05-18T02:30:09.614Z,25.51
2023-05-18T02:31:09.588Z,25.46
2023-05-18T02:32:09.628Z,25.46
2023-05-18T02:33:09.616Z,25.51
2023-05-18T02:34:09.545Z,25.46
2023-05-18T02:35:09.580Z,25.24
2023-05-18T02:36:09.557Z,25.78
2023-05-18T02:37:09.505Z,25.62
2023-05-18T02:38:09.491Z,25.46
2023-05-18T02:39:09.475Z,25.41
2023-05-18T02:40:09.465Z,25.46
2023-05-18T02:41:09.455Z,25.46
2023-05-18T02:42:09.433Z,25.62
2023-05-18T02:43:09.419Z,25.46
2023-05-18T02:44:09.416Z,25.67
2023-05-18T02:45:09.393Z,25.46
2023-05-18T02:46:09.395Z,25.35
2023-05-18T02:47:09.374Z,25.51
2023-05-18T02:48:09.381Z,25.46
2023-05-18T02:49:09.349Z,25.83
2023-05-18T02:50:09.332Z,25.62
2023-05-18T02:51:09.316Z,25.51
2023-05-18T02:52:09.323Z,25.51
2023-05-18T02:53:09.295Z,25.46
2023-05-18T02:54:09.274Z,25.41
2023-05-18T02:55:09.261Z,26.00
2023-05-18T02:56:09.251Z,25.41
2023-05-18T02:57:09.240Z,25.62
2023-05-18T02:58:09.242Z,25.41
2023-05-18T02:59:09.215Z,25.19
2023-05-18T03:00:09.202Z,25.46
2023-05-18T03:01:09.223Z,25.41
2023-05-18T03:02:09.196Z,25.41
2023-05-18T03:03:09.276Z,25.46
2023-05-18T03:04:09.153Z,25.57
2023-05-18T03:05:09.131Z,25.62
2023-05-18T03:06:09.117Z,25.89
2023-05-18T03:07:09.105Z,25.51
2023-05-18T03:08:09.107Z,25.19
2023-05-18T03:09:09.083Z,25.51
2023-05-18T03:10:09.060Z,25.57
2023-05-18T03:11:09.044Z,25.46
2023-05-18T03:12:09.037Z,25.35
2023-05-18T03:13:09.021Z,25.41
2023-05-18T03:14:09.008Z,25.46
2023-05-18T03:15:08.995Z,25.14
2023-05-18T03:16:08.980Z,25.41
2023-05-18T03:17:09.028Z,25.78
2023-05-18T03:18:08.980Z,25.51
2023-05-18T03:19:08.989Z,25.51
2023-05-18T03:20:08.927Z,25.41
2023-05-18T03:21:08.915Z,25.46
2023-05-18T03:22:08.895Z,25.46
2023-05-18T03:23:08.879Z,25.35
2023-05-18T03:24:08.894Z,25.62
2023-05-18T03:25:08.882Z,25.08
2023-05-18T03:26:08.846Z,25.46
2023-05-18T03:27:08.836Z,26.00
2023-05-18T03:28:08.814Z,25.51
2023-05-18T03:29:08.805Z,25.51
2023-05-18T03:30:08.796Z,25.62
2023-05-18T03:31:08.840Z,25.41
2023-05-18T03:32:08.763Z,25.41
2023-05-18T03:33:08.762Z,25.57
2023-05-18T03:34:08.732Z,25.30
2023-05-18T03:35:08.973Z,25.46
2023-05-18T03:36:08.710Z,25.57
2023-05-18T03:37:08.714Z,25.46
2023-05-18T03:38:08.683Z,25.41
2023-05-18T03:39:08.671Z,25.14
2023-05-18T03:40:08.768Z,25.30
2023-05-18T03:41:08.651Z,25.57
2023-05-18T03:42:08.636Z,25.41
2023-05-18T03:43:08.648Z,25.35
2023-05-18T03:44:08.605Z,25.41
2023-05-18T03:45:08.584Z,25.46
2023-05-18T03:46:08.658Z,25.35
2023-05-18T03:47:08.560Z,25.46
2023-05-18T03:48:08.585Z,25.67
2023-05-18T03:49:08.533Z,25.57
2023-05-18T03:50:08.521Z,25.46
2023-05-18T03:51:08.512Z,24.81
2023-05-18T03:52:08.507Z,25.62
2023-05-18T03:53:08.496Z,25.46
2023-05-18T03:54:08.474Z,25.62
2023-05-18T03:55:08.456Z,25.46
2023-05-18T03:56:08.471Z,25.46
2023-05-18T03:57:08.435Z,25.46
2023-05-18T03:58:08.412Z,25.46
2023-05-18T03:59:08.414Z,25.46
2023-05-18T04:00:08.401Z,25.24
2023-05-18T04:01:08.374Z,25.46
2023-05-18T04:02:08.400Z,25.62
2023-05-18T04:03:08.430Z,25.62
2023-05-18T04:04:08.392Z,25.46
2023-05-18T04:05:08.312Z,25.46
2023-05-18T04:06:08.309Z,25.41
2023-05-18T04:07:08.294Z,25.46
2023-05-18T04:08:08.281Z,25.46
2023-05-18T04:09:08.285Z,25.41
2023-05-18T04:10:08.253Z,25.67
2023-05-18T04:11:08.235Z,25.51
2023-05-18T04:12:08.255Z,25.41
2023-05-18T04:13:08.215Z,25.41
2023-05-18T04:14:08.199Z,25.46
2023-05-18T04:15:08.188Z,25.35
2023-05-18T04:16:08.232Z,25.83
2023-05-18T04:17:08.160Z,25.30
2023-05-18T04:18:08.542Z,25.41
2023-05-18T04:19:08.448Z,25.67
2023-05-18T04:20:08.116Z,25.46
2023-05-18T04:21:08.102Z,25.46
2023-05-18T04:22:08.093Z,25.35
2023-05-18T04:23:08.076Z,25.62
2023-05-18T04:24:08.257Z,25.46
2023-05-18T04:25:08.042Z,25.46
2023-05-18T04:26:08.038Z,25.51
2023-05-18T04:27:08.020Z,25.57
2023-05-18T04:28:08.043Z,25.62
2023-05-18T04:29:08.001Z,25.51
2023-05-18T04:30:07.980Z,25.41
2023-05-18T04:31:07.979Z,25.51
2023-05-18T04:32:08.049Z,25.35
2023-05-18T04:33:07.959Z,25.57
2023-05-18T04:34:07.926Z,25.46
2023-05-18T04:35:07.916Z,25.51
2023-05-18T04:36:07.902Z,25.57
2023-05-18T04:37:07.902Z,25.46
2023-05-18T04:38:07.877Z,25.41
2023-05-18T04:39:07.955Z,25.46
2023-05-18T04:40:07.854Z,25.46
2023-05-18T04:41:07.830Z,25.41
2023-05-18T04:42:07.819Z,25.46
2023-05-18T04:43:08.056Z,25.46
2023-05-18T04:44:07.867Z,25.51
2023-05-18T04:45:07.775Z,25.41
2023-05-18T04:46:07.846Z,25.51
2023-05-18T04:47:07.753Z,25.46
2023-05-18T04:48:07.812Z,25.73
2023-05-18T04:49:07.832Z,25.46
2023-05-18T04:50:07.714Z,25.46
2023-05-18T04:51:07.701Z,25.41
2023-05-18T04:52:07.694Z,25.46
2023-05-18T04:53:07.686Z,25.51
2023-05-18T04:54:07.658Z,25.51
2023-05-18T04:55:07.640Z,25.35
2023-05-18T04:56:07.651Z,25.24
2023-05-18T04:57:07.618Z,25.51
2023-05-18T04:58:07.610Z,25.51
2023-05-18T04:59:07.592Z,25.46
2023-05-18T05:00:07.602Z,25.51
2023-05-18T05:01:07.585Z,25.41
2023-05-18T05:02:07.563Z,25.46
2023-05-18T05:03:07.600Z,25.51
2023-05-18T05:04:07.522Z,25.46
2023-05-18T05:05:07.511Z,25.30
2023-05-18T05:06:07.493Z,25.62
2023-05-18T05:07:07.475Z,25.46
2023-05-18T05:08:07.461Z,25.46
2023-05-18T05:09:07.454Z,25.57
2023-05-18T05:10:07.445Z,25.57
2023-05-18T05:11:07.874Z,25.35
2023-05-18T05:12:07.410Z,25.41
2023-05-18T05:13:07.402Z,25.62
2023-05-18T05:14:07.384Z,25.51
2023-05-18T05:15:07.364Z,25.46
2023-05-18T05:16:07.435Z,25.51
2023-05-18T05:17:07.339Z,25.46
2023-05-18T05:18:07.400Z,25.46
2023-05-18T05:19:07.341Z,25.46
2023-05-18T05:20:07.313Z,25.41
2023-05-18T05:21:07.284Z,25.46
2023-05-18T05:22:07.275Z,25.51
2023-05-18T05:23:07.360Z,25.51
2023-05-18T05:24:07.245Z,25.46
2023-05-18T05:25:07.242Z,25.62
2023-05-18T05:26:07.230Z,25.89
2023-05-18T05:27:07.206Z,25.46
2023-05-18T05:28:07.197Z,25.78
2023-05-18T05:29:07.179Z,25.57
2023-05-18T05:30:07.162Z,25.41
2023-05-18T05:31:07.185Z,25.30
2023-05-18T05:32:07.162Z,25.46
2023-05-18T05:33:07.168Z,25.24
2023-05-18T05:34:07.107Z,25.51
2023-05-18T05:35:07.097Z,25.51
2023-05-18T05:36:07.144Z,25.46
2023-05-18T05:37:07.069Z,25.62
2023-05-18T05:38:07.165Z,25.46
2023-05-18T05:39:07.048Z,25.41
2023-05-18T05:40:07.040Z,25.46
2023-05-18T05:41:07.016Z,25.24
2023-05-18T05:42:07.001Z,25.46
2023-05-18T05:43:06.981Z,25.35
2023-05-18T05:44:06.974Z,25.46
2023-05-18T05:45:06.962Z,25.35
2023-05-18T05:46:06.971Z,25.62
2023-05-18T05:47:07.032Z,25.51
2023-05-18T05:48:07.042Z,25.46
2023-05-18T05:49:06.909Z,25.46
2023-05-18T05:50:06.895Z,25.62
2023-05-18T05:51:06.883Z,25.41
2023-05-18T05:52:06.873Z,25.73
2023-05-18T05:53:06.858Z,25.46
2023-05-18T05:54:07.893Z,25.51
2023-05-18T05:55:06.834Z,25.46
2023-05-18T05:56:06.813Z,25.46
2023-05-18T05:57:06.806Z,25.46
2023-05-18T05:58:06.783Z,25.94
2023-05-18T05:59:06.772Z,25.03
2023-05-18T06:00:06.757Z,25.41
2023-05-18T06:01:06.741Z,25.51
2023-05-18T06:02:06.751Z,25.51
2023-05-18T06:03:06.791Z,26.00
2023-05-18T06:04:06.791Z,25.08
2023-05-18T06:05:06.688Z,25.94
2023-05-18T06:06:06.670Z,25.46
2023-05-18T06:07:06.664Z,25.41
2023-05-18T06:08:06.646Z,25.30
2023-05-18T06:09:06.640Z,25.57
2023-05-18T06:10:06.623Z,25.46
2023-05-18T06:11:06.891Z,25.19
2023-05-18T06:12:06.594Z,25.46
2023-05-18T06:13:06.578Z,25.41
2023-05-18T06:14:06.694Z,25.08
2023-05-18T06:15:06.549Z,25.46
2023-05-18T06:16:06.565Z,25.08
2023-05-18T06:17:06.580Z,25.03
2023-05-18T06:18:06.550Z,25.46
2023-05-18T06:19:06.908Z,25.51
2023-05-18T06:20:06.518Z,25.41
2023-05-18T06:21:06.477Z,24.98
2023-05-18T06:22:06.456Z,25.46
2023-05-18T06:23:06.446Z,25.35
2023-05-18T06:24:06.431Z,25.46
2023-05-18T06:25:06.421Z,25.08
2023-05-18T06:26:06.405Z,25.14
2023-05-18T06:27:06.395Z,25.08
2023-05-18T06:28:06.391Z,25.19
2023-05-18T06:29:06.369Z,25.35
2023-05-18T06:30:06.352Z,25.03
2023-05-18T06:31:06.366Z,25.03
2023-05-18T06:32:06.379Z,25.46
2023-05-18T06:33:06.357Z,25.03
2023-05-18T06:34:06.292Z,25.08
2023-05-18T06:35:06.347Z,25.14
2023-05-18T06:36:06.374Z,25.08
2023-05-18T06:37:06.259Z,25.03
2023-05-18T06:38:06.242Z,25.14
2023-05-18T06:39:06.227Z,25.14
2023-05-18T06:40:06.215Z,25.03
2023-05-18T06:41:06.207Z,25.08
2023-05-18T06:42:06.194Z,25.08
2023-05-18T06:43:06.175Z,25.08
2023-05-18T06:44:06.165Z,25.08
2023-05-18T06:45:06.160Z,24.81
2023-05-18T06:46:06.174Z,25.08
2023-05-18T06:47:06.132Z,24.92
2023-05-18T06:48:06.158Z,24.71
2023-05-18T06:49:06.096Z,25.08
2023-05-18T06:50:06.087Z,24.87
2023-05-18T06:51:06.073Z,25.03
2023-05-18T06:52:06.109Z,25.19
2023-05-18T06:53:06.041Z,24.98
2023-05-18T06:54:06.027Z,25.08
2023-05-18T06:55:06.018Z,25.08
2023-05-18T06:56:06.002Z,24.65
2023-05-18T06:57:05.993Z,25.08
2023-05-18T06:58:05.976Z,25.08
2023-05-18T06:59:05.985Z,24.60
2023-05-18T07:00:05.952Z,25.03
2023-05-18T07:01:05.973Z,24.71
2023-05-18T07:02:05.970Z,24.65
2023-05-18T07:03:06.114Z,24.60
2023-05-18T07:04:05.986Z,24.49
2023-05-18T07:05:05.875Z,24.65
2023-05-18T07:06:05.863Z,24.76
2023-05-18T07:07:05.868Z,24.71
2023-05-18T07:08:05.900Z,24.71
2023-05-18T07:09:05.820Z,24.65
2023-05-18T07:10:05.810Z,24.55
2023-05-18T07:11:05.812Z,24.65
2023-05-18T07:12:05.795Z,24.71
2023-05-18T07:13:05.776Z,24.76
2023-05-18T07:14:05.775Z,24.55
2023-05-18T07:15:05.745Z,24.98
2023-05-18T07:16:05.943Z,24.65
2023-05-18T07:17:06.161Z,24.71
2023-05-18T07:18:05.773Z,24.71
2023-05-18T07:19:05.727Z,24.65
2023-05-18T07:20:05.676Z,24.55
2023-05-18T07:21:05.659Z,24.81
2023-05-18T07:22:05.651Z,24.71
2023-05-18T07:23:05.635Z,24.65
2023-05-18T07:24:05.661Z,24.60
2023-05-18T07:25:05.608Z,24.49
2023-05-18T07:26:05.592Z,24.12
2023-05-18T07:27:05.590Z,24.76
2023-05-18T07:28:05.565Z,24.65
2023-05-18T07:29:05.557Z,24.71
2023-05-18T07:30:05.535Z,24.76
2023-05-18T07:31:05.567Z,24.65
2023-05-18T07:32:05.514Z,24.71
2023-05-18T07:33:05.546Z,24.71
2023-05-18T07:34:05.481Z,24.01
2023-05-18T07:35:05.474Z,24.71
2023-05-18T07:36:05.468Z,24.44
2023-05-18T07:37:05.440Z,24.06
2023-05-18T07:38:05.449Z,24.71
2023-05-18T07:39:05.444Z,24.17
2023-05-18T07:40:05.494Z,24.12
2023-05-18T07:41:05.396Z,24.06
2023-05-18T07:42:05.384Z,24.17
2023-05-18T07:43:05.366Z,24.12
2023-05-18T07:44:05.345Z,24.06
2023-05-18T07:45:05.330Z,24.22
2023-05-18T07:46:05.322Z,23.96
2023-05-18T07:47:05.388Z,24.12
2023-05-18T07:48:05.368Z,24.12
2023-05-18T07:49:05.288Z,24.12
2023-05-18T07:50:05.469Z,23.79
2023-05-18T07:51:05.259Z,24.17
2023-05-18T07:52:05.243Z,24.12
2023-05-18T07:53:05.240Z,24.28
2023-05-18T07:54:05.234Z,24.12
2023-05-18T07:55:05.215Z,24.06
2023-05-18T07:56:05.214Z,24.12
2023-05-18T07:57:05.180Z,24.12
2023-05-18T07:58:05.159Z,24.22
2023-05-18T07:59:05.148Z,24.12
2023-05-18T08:00:05.136Z,24.12
2023-05-18T08:01:05.143Z,24.33
2023-05-18T08:02:05.168Z,24.17
2023-05-18T08:03:05.140Z,24.12
2023-05-18T08:04:05.215Z,24.60
2023-05-18T08:05:05.068Z,24.01
2023-05-18T08:06:05.060Z,24.12
2023-05-18T08:07:05.044Z,24.12
2023-05-18T08:08:06.779Z,24.17
2023-05-18T08:09:05.020Z,23.96
2023-05-18T08:10:05.162Z,24.06
2023-05-18T08:11:04.991Z,24.01
2023-05-18T08:12:05.003Z,23.69
2023-05-18T08:13:04.996Z,23.85
2023-05-18T08:14:04.968Z,24.06
2023-05-18T08:15:04.946Z,23.69
2023-05-18T08:16:11.686Z,23.63
2023-05-18T08:17:06.044Z,24.06
2023-05-18T08:18:04.971Z,23.63
2023-05-18T08:19:04.922Z,24.12
2023-05-18T08:20:04.870Z,23.85
2023-05-18T08:21:04.857Z,24.17
2023-05-18T08:22:04.838Z,23.69
2023-05-18T08:23:04.845Z,23.69
2023-05-18T08:24:04.812Z,23.85
2023-05-18T08:25:04.812Z,23.69
2023-05-18T08:26:04.796Z,23.74
2023-05-18T08:27:04.792Z,23.69
2023-05-18T08:28:04.789Z,23.74
2023-05-18T08:29:04.785Z,23.96
2023-05-18T08:30:04.737Z,23.79
2023-05-18T08:31:04.752Z,23.74
2023-05-18T08:32:04.752Z,23.74
2023-05-18T08:33:04.711Z,23.79
2023-05-18T08:34:04.680Z,24.12
2023-05-18T08:35:04.671Z,23.69
2023-05-18T08:36:04.668Z,23.79
2023-05-18T08:37:04.643Z,23.79
2023-05-18T08:38:05.770Z,23.69
2023-05-18T08:39:04.613Z,23.69
2023-05-18T08:40:04.612Z,23.69
2023-05-18T08:41:04.646Z,23.69
2023-05-18T08:42:04.577Z,23.79
2023-05-18T08:43:04.572Z,23.53
2023-05-18T08:44:04.792Z,23.74
2023-05-18T08:45:04.547Z,23.79
2023-05-18T08:46:04.521Z,23.85
2023-05-18T08:47:04.510Z,23.69
2023-05-18T08:48:04.574Z,23.74
2023-05-18T08:49:04.557Z,24.01
2023-05-18T08:50:04.474Z,23.69
2023-05-18T08:51:04.460Z,23.74
2023-05-18T08:52:04.451Z,23.69
2023-05-18T08:53:04.491Z,23.79
2023-05-18T08:54:04.438Z,23.79
2023-05-18T08:55:04.404Z,23.74
2023-05-18T08:56:04.432Z,23.69
2023-05-18T08:57:04.382Z,23.36
2023-05-18T08:58:04.413Z,23.69
2023-05-18T08:59:04.355Z,23.69
2023-05-18T09:00:04.428Z,23.31
2023-05-18T09:01:04.354Z,23.10
2023-05-18T09:02:04.408Z,23.36
2023-05-18T09:03:04.399Z,23.69
2023-05-18T09:04:04.315Z,23.74
2023-05-18T09:05:04.296Z,23.36
2023-05-18T09:06:04.265Z,23.69
2023-05-18T09:07:04.256Z,23.36
2023-05-18T09:08:04.240Z,23.26
2023-05-18T09:09:04.242Z,23.58
2023-05-18T09:10:04.215Z,23.47
2023-05-18T09:11:04.214Z,23.90
2023-05-18T09:12:04.193Z,23.47
2023-05-18T09:13:04.173Z,23.42
2023-05-18T09:14:04.172Z,23.47
2023-05-18T09:15:04.148Z,23.53
2023-05-18T09:16:04.212Z,23.36
2023-05-18T09:17:04.130Z,23.26
2023-05-18T09:18:04.186Z,23.31
2023-05-18T09:19:04.172Z,23.31
2023-05-18T09:20:04.080Z,23.31
2023-05-18T09:21:04.067Z,23.31
2023-05-18T09:22:04.052Z,23.31
2023-05-18T09:23:04.040Z,23.31
2023-05-18T09:24:04.026Z,23.31
2023-05-18T09:25:04.263Z,23.36
2023-05-18T09:26:04.000Z,23.31
2023-05-18T09:27:03.999Z,23.26
2023-05-18T09:28:03.997Z,23.31
2023-05-18T09:29:03.965Z,23.36
2023-05-18T09:30:03.984Z,23.53
2023-05-18T09:31:03.940Z,23.31
2023-05-18T09:32:04.122Z,23.36
2023-05-18T09:33:03.970Z,23.47
2023-05-18T09:34:03.930Z,23.31
2023-05-18T09:35:03.903Z,23.26
2023-05-18T09:36:03.868Z,23.36
2023-05-18T09:37:03.856Z,23.31
2023-05-18T09:38:03.841Z,23.36
2023-05-18T09:39:03.826Z,23.31
2023-05-18T09:40:03.824Z,23.31
2023-05-18T09:41:03.816Z,23.31
2023-05-18T09:42:03.802Z,23.36
2023-05-18T09:43:03.772Z,23.36
2023-05-18T09:44:03.762Z,23.31
2023-05-18T09:45:03.758Z,23.42
2023-05-18T09:46:03.737Z,23.20
2023-05-18T09:47:03.841Z,23.31
2023-05-18T09:48:03.763Z,23.31
2023-05-18T09:49:03.696Z,23.36
2023-05-18T09:50:03.679Z,23.36
2023-05-18T09:51:03.678Z,23.31
2023-05-18T09:52:03.660Z,23.42
2023-05-18T09:53:03.650Z,23.31
2023-05-18T09:54:03.633Z,23.26
2023-05-18T09:55:03.624Z,23.36
2023-05-18T09:56:03.601Z,23.36
2023-05-18T09:57:10.695Z,22.77
2023-05-18T09:58:04.615Z,22.72
2023-05-18T09:59:03.591Z,22.72
2023-05-18T10:00:03.552Z,22.77
2023-05-18T10:01:03.566Z,23.26
2023-05-18T10:02:03.529Z,23.36
2023-05-18T10:03:03.597Z,23.31
2023-05-18T10:04:03.562Z,23.36
2023-05-18T10:05:03.496Z,23.58
2023-05-18T10:06:03.483Z,23.31
2023-05-18T10:07:03.468Z,23.36
2023-05-18T10:08:03.473Z,22.72
2023-05-18T10:09:03.441Z,23.26
2023-05-18T10:10:03.494Z,23.36
2023-05-18T10:11:03.424Z,23.47
2023-05-18T10:12:03.424Z,23.26
2023-05-18T10:13:03.396Z,22.99
2023-05-18T10:14:03.389Z,23.26
2023-05-18T10:15:03.377Z,22.72
2023-05-18T10:16:03.349Z,23.31
2023-05-18T10:17:14.987Z,22.67
2023-05-18T10:18:04.395Z,23.31
2023-05-18T10:19:03.349Z,22.72
2023-05-18T10:20:03.389Z,23.36
2023-05-18T10:21:03.282Z,23.31
2023-05-18T10:22:03.265Z,23.26
2023-05-18T10:23:03.312Z,23.26
2023-05-18T10:24:03.351Z,23.31
2023-05-18T10:25:03.436Z,22.77
2023-05-18T10:26:03.233Z,22.72
2023-05-18T10:27:03.220Z,22.72
2023-05-18T10:28:03.195Z,22.72
2023-05-18T10:29:03.183Z,22.72
2023-05-18T10:30:03.171Z,22.72
2023-05-18T10:31:03.253Z,22.72
2023-05-18T10:32:06.106Z,22.67
2023-05-18T10:33:06.988Z,22.77
2023-05-18T10:34:04.136Z,22.72
2023-05-18T10:35:03.103Z,22.72
2023-05-18T10:36:03.157Z,22.77
2023-05-18T10:37:03.076Z,23.31
2023-05-18T10:38:03.064Z,22.88
2023-05-18T10:39:03.076Z,23.31
2023-05-18T10:40:03.063Z,22.72
2023-05-18T10:41:03.044Z,22.77
2023-05-18T10:42:03.019Z,22.77
2023-05-18T10:43:03.014Z,22.72
2023-05-18T10:44:02.993Z,22.77
2023-05-18T10:45:02.983Z,22.93
2023-05-18T10:46:03.152Z,22.77
2023-05-18T10:47:03.025Z,23.04
2023-05-18T10:48:02.999Z,22.72
2023-05-18T10:49:02.918Z,22.72
2023-05-18T10:50:02.908Z,22.72
2023-05-18T10:51:02.893Z,22.72
2023-05-18T10:52:02.947Z,22.83
2023-05-18T10:53:02.869Z,22.72
2023-05-18T10:54:02.859Z,22.72
2023-05-18T10:55:02.852Z,22.88
2023-05-18T10:56:02.840Z,22.72
2023-05-18T10:57:02.809Z,22.77
2023-05-18T10:58:02.802Z,22.72
2023-05-18T10:59:02.782Z,22.72
2023-05-18T11:00:02.772Z,22.72
2023-05-18T11:01:02.765Z,22.77
2023-05-18T11:02:02.800Z,22.88
2023-05-18T11:03:02.774Z,22.77
2023-05-18T11:04:02.727Z,22.72
2023-05-18T11:05:02.762Z,22.72
2023-05-18T11:06:02.707Z,22.93
2023-05-18T11:07:02.680Z,22.61
2023-05-18T11:08:02.696Z,22.77
2023-05-18T11:09:02.656Z,22.88
2023-05-18T11:10:02.647Z,22.77
2023-05-18T11:11:02.626Z,22.77
2023-05-18T11:12:02.611Z,22.83
2023-05-18T11:13:02.599Z,22.72
2023-05-18T11:14:02.640Z,22.67
2023-05-18T11:15:02.641Z,22.72
2023-05-18T11:16:02.596Z,22.61
2023-05-18T11:17:02.548Z,22.67
2023-05-18T11:18:02.604Z,22.88
2023-05-18T11:19:02.560Z,22.77
2023-05-18T11:20:02.512Z,22.77
2023-05-18T11:21:02.494Z,22.72
2023-05-18T11:22:02.496Z,22.72
2023-05-18T11:23:02.477Z,22.67
2023-05-18T11:24:02.547Z,22.72
2023-05-18T11:25:02.439Z,22.72
2023-05-18T11:26:02.437Z,22.77
2023-05-18T11:27:02.413Z,22.72
2023-05-18T11:28:02.542Z,22.77
2023-05-18T11:29:02.393Z,22.77
2023-05-18T11:30:15.239Z,23.10
2023-05-18T11:31:03.542Z,22.77
2023-05-18T11:32:02.767Z,22.72
2023-05-18T11:33:02.522Z,22.83
2023-05-18T11:34:02.335Z,22.83
2023-05-18T11:35:02.425Z,22.72
2023-05-18T11:36:02.312Z,22.34
2023-05-18T11:37:02.295Z,22.67
2023-05-18T11:38:02.275Z,22.72
2023-05-18T11:39:02.281Z,22.72
2023-05-18T11:40:06.800Z,22.83
2023-05-18T11:41:03.263Z,22.72
2023-05-18T11:42:02.221Z,22.77
2023-05-18T11:43:02.217Z,22.77
2023-05-18T11:44:02.205Z,22.40
2023-05-18T11:45:02.189Z,22.83
2023-05-18T11:46:02.283Z,22.72
2023-05-18T11:47:02.163Z,22.18
2023-05-18T11:48:02.358Z,22.77
2023-05-18T11:49:02.155Z,22.88
2023-05-18T11:50:02.135Z,22.72
2023-05-18T11:51:02.107Z,23.31
2023-05-18T11:52:02.520Z,23.20
2023-05-18T11:53:02.093Z,22.72
2023-05-18T11:54:02.079Z,22.72
2023-05-18T11:55:02.059Z,22.77
2023-05-18T11:56:02.061Z,22.72
2023-05-18T11:57:02.030Z,22.45
2023-05-18T11:58:02.116Z,22.61
2023-05-18T11:59:02.010Z,22.67
2023-05-18T12:00:02.114Z,22.61
2023-05-18T12:01:01.979Z,22.67
2023-05-18T12:02:02.008Z,22.72
2023-05-18T12:03:02.155Z,22.67
2023-05-18T12:04:02.084Z,22.67
2023-05-18T12:05:01.926Z,22.67
2023-05-18T12:06:01.909Z,22.67
2023-05-18T12:07:01.892Z,22.72
2023-05-18T12:08:01.894Z,22.72
2023-05-18T12:09:03.695Z,22.72
2023-05-18T12:10:01.874Z,22.40
2023-05-18T12:11:01.857Z,22.72
2023-05-18T12:12:01.871Z,22.77
2023-05-18T12:13:01.825Z,22.56
2023-05-18T12:14:01.813Z,22.77
2023-05-18T12:15:01.864Z,22.45
2023-05-18T12:16:01.779Z,22.34
2023-05-18T12:17:01.915Z,22.83
2023-05-18T12:18:01.792Z,22.72
2023-05-18T12:19:01.780Z,22.77
2023-05-18T12:20:01.742Z,22.72
2023-05-18T12:21:01.715Z,22.72
2023-05-18T12:22:01.700Z,22.72
2023-05-18T12:23:01.692Z,22.67
2023-05-18T12:24:01.692Z,22.72
2023-05-18T12:25:01.800Z,22.77
2023-05-18T12:26:01.652Z,22.77
2023-05-18T12:27:01.640Z,22.83
2023-05-18T12:28:01.704Z,22.67
2023-05-18T12:29:01.607Z,22.72
2023-05-18T12:30:01.608Z,22.83
2023-05-18T12:31:01.632Z,22.93
2023-05-18T12:32:01.577Z,22.77
2023-05-18T12:33:01.605Z,22.93
2023-05-18T12:34:01.555Z,22.34
2023-05-18T12:35:01.537Z,22.29
2023-05-18T12:36:01.515Z,22.77
2023-05-18T12:37:01.503Z,22.77
2023-05-18T12:38:01.951Z,22.34
2023-05-18T12:39:01.535Z,22.61
2023-05-18T12:40:01.481Z,22.45
2023-05-18T12:41:01.461Z,22.34
2023-05-18T12:42:01.441Z,22.77
2023-05-18T12:43:01.429Z,22.34
2023-05-18T12:44:01.455Z,22.72
2023-05-18T12:45:01.414Z,22.29
2023-05-18T12:46:01.425Z,22.29
2023-05-18T12:47:01.377Z,22.45
2023-05-18T12:48:01.448Z,22.34
2023-05-18T12:49:01.368Z,22.29
2023-05-18T12:50:01.347Z,22.34
2023-05-18T12:51:01.330Z,21.97
2023-05-18T12:52:01.312Z,22.77